Allegre, Kentucky
Current Conditions -  °F | °C
As of 6:58 PM on Friday 31 Oct 2014 (Local Time) from KHOP Reporting Station
Overcast Overcast  
Wind Chill: 34°   Ceiling: 6000
Heat Index: 42°   Visibility: 10mi
Dew Point: 25°   Wind: 16mph
Humidity: 51%   Direction: 300°WNW
Pressure: 30.18"   Gusts: 25mph
Location:  36.93°N, 87.22°W
Report Text: KHOP 312358Z AUTO 30014G22KT 10SM BKN060 OVC080 06/M04 A3018 RMK AO2 SLP223 60001 T00561039 10085 20051 52020
Loading
Personal Weather Stations






























Interactive Weather Map
Tropical Storm Tracking
New forecast layout! Learn more

10-Day Weather Forecast

Advertisements
Track Severe Weather on mobile